Time;durP1;ratioP1;P1;durP2;ratioP2;P2;SDS_P1;SDS_P2;PMS_P1;PMS_P2;Temp;Humidity;BMP_temperature;BMP_pressure;BME280_temperature;BME280_humidity;BME280_pressure;Samples;Min_cycle;Max_cycle;Signal;HPM_P1;HPM_P2
2021/07/12 00:00:24;;;;;;;11.87;8.53;;;;;;;23.26;100.00;101006.78;5011767;28;20409;-72
2021/07/12 00:02:51;;;;;;;12.60;8.67;;;;;;;23.29;100.00;100999.41;5011371;28;20405;-74
2021/07/12 00:05:18;;;;;;;9.40;8.40;;;;;;;23.33;100.00;101006.91;5011729;28;20409;-72
2021/07/12 00:07:44;;;;;;;20.50;9.00;;;;;;;23.35;100.00;100998.69;5011169;28;20564;-72
2021/07/12 00:10:12;;;;;;;12.73;10.03;;;;;;;23.39;100.00;100995.47;5011302;28;20472;-73
2021/07/12 00:12:39;;;;;;;12.37;8.10;;;;;;;23.43;100.00;100996.78;5011248;28;20779;-74
2021/07/12 00:15:07;;;;;;;21.50;7.90;;;;;;;23.33;100.00;101004.22;5011303;28;20432;-72
2021/07/12 00:17:32;;;;;;;9.60;8.53;;;;;;;23.29;100.00;101000.25;5011282;28;20421;-70
2021/07/12 00:19:58;;;;;;;10.50;8.97;;;;;;;23.26;100.00;101001.41;5012197;28;20471;-71
2021/07/12 00:22:23;;;;;;;10.90;8.70;;;;;;;23.38;100.00;100988.44;5011008;28;20182;-72
2021/07/12 00:24:49;;;;;;;11.93;8.40;;;;;;;23.39;100.00;100994.63;5010121;28;20217;-71
2021/07/12 00:27:14;;;;;;;11.13;8.53;;;;;;;23.27;100.00;101002.25;5011074;28;20196;-70
2021/07/12 00:29:40;;;;;;;15.20;8.83;;;;;;;23.31;100.00;101002.75;5013283;28;20162;-73
2021/07/12 00:32:06;;;;;;;12.27;9.30;;;;;;;23.24;100.00;101010.66;5010897;28;20206;-70
2021/07/12 00:34:32;;;;;;;14.93;9.50;;;;;;;23.19;100.00;101005.00;5011224;28;20162;-72
2021/07/12 00:36:58;;;;;;;14.03;9.40;;;;;;;23.03;100.00;101000.56;5010770;28;20432;-71
2021/07/12 00:39:24;;;;;;;13.87;8.70;;;;;;;23.01;100.00;101004.47;5014559;28;20464;-71
2021/07/12 00:41:50;;;;;;;14.73;10.07;;;;;;;23.07;100.00;100996.53;5011134;28;20236;-73
2021/07/12 00:44:16;;;;;;;9.53;8.57;;;;;;;23.03;100.00;100999.75;5011284;28;20173;-72
2021/07/12 00:46:41;;;;;;;16.80;9.37;;;;;;;23.01;100.00;100996.41;5010810;28;20413;-72
2021/07/12 00:49:07;;;;;;;16.07;9.47;;;;;;;23.04;100.00;100996.06;5011319;28;20216;-72
2021/07/12 00:51:33;;;;;;;12.67;9.87;;;;;;;22.96;100.00;100989.72;5011380;28;20192;-72
2021/07/12 00:53:58;;;;;;;14.07;10.00;;;;;;;23.02;100.00;100990.03;5010955;28;20613;-73
2021/07/12 00:56:24;;;;;;;17.67;10.67;;;;;;;22.94;100.00;100997.13;5011108;28;20620;-73
2021/07/12 00:58:50;;;;;;;11.67;8.63;;;;;;;22.94;100.00;100997.13;5013056;28;20180;-71
2021/07/12 01:01:16;;;;;;;16.20;9.67;;;;;;;22.96;100.00;100994.25;5010849;28;20410;-72
2021/07/12 01:03:41;;;;;;;16.60;10.20;;;;;;;22.86;100.00;100999.84;5010729;28;20162;-72
2021/07/12 01:06:06;;;;;;;11.50;9.40;;;;;;;;;;5009393;28;20487;-72
2021/07/12 01:08:32;;;;;;;14.77;10.00;;;;;;;22.84;100.00;100988.44;5011091;28;20260;-72
2021/07/12 01:11:09;;;;;;;13.30;9.57;;;;;;;22.83;100.00;100988.63;5010774;28;20167;-72
2021/07/12 01:13:42;;;;;;;18.90;9.90;;;;;;;22.83;100.00;100999.34;5024630;28;20149;-73
2021/07/12 01:16:35;;;;;;;16.43;10.80;;;;;;;22.76;100.00;101001.91;5010890;28;20428;-71
2021/07/12 01:19:19;;;;;;;14.33;11.03;;;;;;;22.64;100.00;101005.97;5013831;28;20499;-72
2021/07/12 01:22:00;;;;;;;12.83;9.40;;;;;;;22.61;100.00;100999.13;5011682;28;20417;-71
2021/07/12 01:24:44;;;;;;;15.27;10.77;;;;;;;22.59;100.00;101008.31;5010414;28;20479;-73
2021/07/12 01:27:37;;;;;;;13.57;11.10;;;;;;;22.56;100.00;100997.97;5011217;28;20420;-72
2021/07/12 01:30:07;;;;;;;13.57;11.10;;;;;;;22.55;100.00;100996.28;5014494;28;20435;-72
2021/07/12 01:32:53;;;;;;;13.43;9.73;;;;;;;22.51;100.00;101009.19;5015316;28;20811;-74
2021/07/12 01:35:28;;;;;;;13.03;9.80;;;;;;;22.37;100.00;101005.41;5015901;28;20456;-74
2021/07/12 01:38:40;;;;;;;13.23;10.07;;;;;;;22.31;100.00;101008.78;5014716;28;20926;-73
2021/07/12 01:41:20;;;;;;;16.83;11.20;;;;;;;22.19;100.00;101007.47;4986960;28;20426;-73
2021/07/12 01:43:59;;;;;;;13.27;10.73;;;;;;;22.18;100.00;101013.81;4988897;28;20943;-72
2021/07/12 01:46:58;;;;;;;19.10;12.67;;;;;;;22.13;100.00;101017.00;5002479;28;20921;-72
2021/07/12 01:49:33;;;;;;;16.80;11.40;;;;;;;22.09;100.00;101017.53;5010139;28;20491;-73
2021/07/12 01:52:23;;;;;;;13.37;10.03;;;;;;;22.10;100.00;101014.69;5014222;28;20502;-72
2021/07/12 01:55:17;;;;;;;14.07;11.00;;;;;;;22.07;100.00;101008.81;5013647;28;20405;-72
2021/07/12 01:57:59;;;;;;;21.20;11.87;;;;;;;22.06;100.00;101012.47;5000172;28;20885;-72
2021/07/12 02:00:25;;;;;;;13.20;11.20;;;;;;;22.00;100.00;101013.19;5014012;28;20452;-73
2021/07/12 02:02:54;;;;;;;14.10;11.33;;;;;;;22.02;100.00;101021.88;5013042;28;20492;-72
2021/07/12 02:05:22;;;;;;;15.57;12.33;;;;;;;21.98;100.00;101015.16;5014138;28;20401;-72
2021/07/12 02:07:49;;;;;;;15.60;11.60;;;;;;;21.91;100.00;101019.53;5013523;28;20457;-73
2021/07/12 02:10:19;;;;;;;16.20;11.20;;;;;;;21.89;100.00;101017.84;5013307;28;20986;-72
2021/07/12 02:12:46;;;;;;;15.17;11.87;;;;;;;21.85;100.00;101021.91;5013860;28;20408;-73
2021/07/12 02:15:14;;;;;;;14.60;11.93;;;;;;;21.79;100.00;101016.38;5013588;28;20519;-72
2021/07/12 02:17:41;;;;;;;16.33;11.70;;;;;;;21.76;100.00;101022.88;5013777;28;20760;-72
2021/07/12 02:20:09;;;;;;;14.60;12.20;;;;;;;21.71;100.00;101025.25;5013563;28;20413;-72
2021/07/12 02:22:35;;;;;;;14.97;11.20;;;;;;;21.68;100.00;101030.91;5013384;28;20420;-72
2021/07/12 02:25:02;;;;;;;15.07;12.00;;;;;;;21.73;100.00;101033.94;5014376;28;20420;-71
2021/07/12 02:27:31;;;;;;;15.63;11.90;;;;;;;21.63;100.00;101038.63;5013496;28;20464;-71
2021/07/12 02:29:57;;;;;;;16.60;12.30;;;;;;;21.65;100.00;101028.59;5013316;28;20433;-73
2021/07/12 02:32:23;;;;;;;18.80;12.03;;;;;;;21.66;100.00;101026.75;5013138;28;20461;-72
2021/07/12 02:34:50;;;;;;;15.40;12.27;;;;;;;21.64;100.00;101034.94;5018603;28;20225;-73
2021/07/12 02:37:17;;;;;;;16.40;11.77;;;;;;;21.57;100.00;101032.09;5012920;28;20811;-73
2021/07/12 02:39:46;;;;;;;17.23;13.40;;;;;;;21.48;100.00;101035.78;5012700;28;20463;-72
2021/07/12 02:42:12;;;;;;;16.80;12.63;;;;;;;21.43;100.00;101034.59;5013127;28;20456;-72
2021/07/12 02:44:40;;;;;;;21.00;14.67;;;;;;;21.36;100.00;101037.09;5013211;28;20440;-72
2021/07/12 02:47:07;;;;;;;22.30;13.23;;;;;;;21.31;100.00;101034.06;5012558;28;20417;-73
2021/07/12 02:49:34;;;;;;;17.13;14.47;;;;;;;21.21;100.00;101031.50;5013134;28;20405;-71
2021/07/12 02:52:05;;;;;;;16.03;11.20;;;;;;;21.22;100.00;101037.69;5013040;28;20421;-72
2021/07/12 02:54:40;;;;;;;19.40;12.50;;;;;;;21.18;100.00;101033.69;5012597;28;20568;-71
2021/07/12 02:57:05;;;;;;;22.77;13.27;;;;;;;21.10;100.00;101031.84;5013106;28;20435;-71
2021/07/12 02:59:31;;;;;;;20.27;13.13;;;;;;;21.12;100.00;101029.84;5012787;28;20479;-71
2021/07/12 03:01:56;;;;;;;19.20;13.07;;;;;;;21.17;100.00;101027.50;5012780;28;20270;-71
2021/07/12 03:04:22;;;;;;;34.83;15.87;;;;;;;21.17;100.00;101032.88;5012308;28;20177;-71
2021/07/12 03:06:51;;;;;;;19.63;12.93;;;;;;;21.16;100.00;101030.31;5012584;28;20174;-72
2021/07/12 03:09:25;;;;;;;16.37;12.90;;;;;;;21.18;100.00;101039.88;5012304;28;20201;-72
2021/07/12 03:12:06;;;;;;;22.53;13.47;;;;;;;21.17;100.00;101027.50;5013459;28;20482;-72
2021/07/12 03:14:40;;;;;;;16.00;13.50;;;;;;;21.18;100.00;101028.34;5012583;28;20429;-72
2021/07/12 03:17:07;;;;;;;22.53;14.30;;;;;;;21.25;100.00;101027.53;5012556;28;20401;-72
2021/07/12 03:19:36;;;;;;;17.67;13.43;;;;;;;21.27;100.00;101014.84;5012460;28;20475;-71
2021/07/12 03:22:05;;;;;;;16.73;12.50;;;;;;;21.24;100.00;101027.69;5011748;28;20406;-71
2021/07/12 03:24:31;;;;;;;15.30;13.50;;;;;;;21.22;100.00;101027.84;5012068;28;20413;-71
2021/07/12 03:26:59;;;;;;;21.67;15.07;;;;;;;21.24;100.00;101049.91;5012249;28;20460;-72
2021/07/12 03:29:30;;;;;;;16.20;14.07;;;;;;;21.24;100.00;101031.22;5012362;28;20425;-73
2021/07/12 03:31:58;;;;;;;20.23;12.90;;;;;;;21.28;100.00;101029.88;5012482;28;20457;-72
2021/07/12 03:34:26;;;;;;;18.90;14.03;;;;;;;21.33;100.00;101038.25;5016927;28;20919;-73
2021/07/12 03:36:52;;;;;;;19.30;13.43;;;;;;;21.30;100.00;101037.75;5012031;28;20405;-72
2021/07/12 03:39:18;;;;;;;24.13;13.00;;;;;;;21.33;100.00;101038.25;5012076;28;20531;-72
2021/07/12 03:41:44;;;;;;;17.33;14.60;;;;;;;21.41;100.00;101025.91;5011886;28;20421;-73
2021/07/12 03:44:10;;;;;;;16.87;13.00;;;;;;;21.49;100.00;101036.59;5012239;28;20171;-72
2021/07/12 03:46:41;;;;;;;18.83;13.10;;;;;;;21.50;100.00;101030.25;5025609;28;20200;-72
2021/07/12 03:49:11;;;;;;;18.20;12.67;;;;;;;21.54;100.00;101032.44;5011268;28;20193;-73
2021/07/12 03:51:41;;;;;;;18.80;13.30;;;;;;;21.59;100.00;101034.59;5011767;28;20405;-73
2021/07/12 03:54:06;;;;;;;17.87;14.00;;;;;;;21.60;100.00;101030.91;5018016;28;20985;-72
2021/07/12 03:56:33;;;;;;;16.50;13.03;;;;;;;21.60;100.00;101028.25;5018454;28;20417;-71
2021/07/12 03:58:59;;;;;;;16.00;12.70;;;;;;;21.59;100.00;101031.91;5011533;28;20224;-72
2021/07/12 04:01:24;;;;;;;15.30;12.87;;;;;;;21.52;100.00;101025.56;5011337;28;20418;-71
2021/07/12 04:03:52;;;;;;;18.50;12.47;;;;;;;21.56;100.00;101035.78;5011771;28;20162;-72
2021/07/12 04:06:17;;;;;;;19.60;13.77;;;;;;;21.63;100.00;101046.66;5011581;28;20770;-71
2021/07/12 04:08:44;;;;;;;15.67;13.00;;;;;;;21.68;100.00;101033.59;5011308;28;20522;-71
2021/07/12 04:11:11;;;;;;;17.37;14.00;;;;;;;21.73;100.00;101039.28;5011712;28;20162;-72
2021/07/12 04:13:37;;;;;;;23.30;14.70;;;;;;;21.79;100.00;101037.78;5010992;28;20417;-71
2021/07/12 04:16:03;;;;;;;17.20;14.57;;;;;;;21.89;100.00;101033.91;5011322;28;20507;-72
2021/07/12 04:18:29;;;;;;;18.47;13.07;;;;;;;21.99;100.00;101027.53;5011795;28;20491;-72
2021/07/12 04:20:54;;;;;;;15.53;11.17;;;;;;;22.31;100.00;101011.44;5011267;28;20828;-71
2021/07/12 04:23:20;;;;;;;16.17;12.03;;;;;;;22.64;100.00;101022.03;5011314;28;20170;-72
2021/07/12 04:25:47;;;;;;;16.77;12.77;;;;;;;22.78;100.00;101023.97;5010283;28;20256;-72
2021/07/12 04:28:13;;;;;;;15.13;10.10;;;;;;;22.96;100.00;101021.06;5010704;28;20194;-70
2021/07/12 04:30:38;;;;;;;14.03;11.07;;;;;;;23.31;100.00;101011.63;5010951;28;20488;-72
2021/07/12 04:33:04;;;;;;;16.30;13.20;;;;;;;23.45;100.00;101021.56;5010968;28;20229;-71
2021/07/12 04:35:30;;;;;;;14.80;11.80;;;;;;;23.59;100.00;101019.13;5015468;28;20162;-71
2021/07/12 04:37:56;;;;;;;17.73;13.50;;;;;;;23.51;100.00;101023.53;5010226;28;20664;-71
2021/07/12 04:40:21;;;;;;;16.40;11.97;;;;;;;23.26;100.00;101027.41;5010042;28;20417;-72
2021/07/12 04:42:47;;;;;;;18.30;14.40;;;;;;;23.02;100.00;101022.22;5011070;28;20170;-74
2021/07/12 04:45:13;;;;;;;15.20;13.27;;;;;;;23.07;100.00;101028.72;5010915;28;20177;-73
2021/07/12 04:47:38;;;;;;;19.47;13.30;;;;;;;22.96;100.00;101029.94;5011133;28;20193;-73
2021/07/12 04:50:05;;;;;;;33.37;15.13;;;;;;;22.93;100.00;101024.94;5011634;28;20496;-71
2021/07/12 04:52:32;;;;;;;17.07;14.13;;;;;;;22.92;100.00;101030.47;5022635;28;20719;-72
2021/07/12 04:54:58;;;;;;;21.43;15.70;;;;;;;22.95;100.00;101030.94;5010886;28;20422;-73
2021/07/12 04:57:23;;;;;;;17.17;14.70;;;;;;;22.98;100.00;101033.28;5011186;28;20405;-73
2021/07/12 04:59:51;;;;;;;20.17;15.53;;;;;;;23.05;100.00;101030.75;5011841;28;20220;-73
2021/07/12 05:02:16;;;;;;;19.80;14.33;;;;;;;23.17;100.00;101028.47;5019468;28;20174;-74
2021/07/12 05:04:42;;;;;;;24.63;15.03;;;;;;;23.31;100.00;101022.34;5024712;28;20421;-73
2021/07/12 05:07:10;;;;;;;17.87;13.90;;;;;;;23.37;100.00;101021.66;5014114;28;20167;-74
2021/07/12 05:09:35;;;;;;;15.10;13.20;;;;;;;23.42;100.00;101021.09;5014789;28;20234;-73
2021/07/12 05:12:01;;;;;;;18.20;13.80;;;;;;;23.52;100.00;101022.53;5014555;28;20420;-73
2021/07/12 05:14:27;;;;;;;19.30;13.60;;;;;;;23.52;100.00;101019.84;5017928;28;20162;-73
2021/07/12 05:16:53;;;;;;;19.87;14.30;;;;;;;23.52;100.00;101025.22;5021544;28;20742;-73
2021/07/12 05:19:19;;;;;;;20.03;13.90;;;;;;;23.50;100.00;101026.38;5029446;28;20242;-73
2021/07/12 05:21:46;;;;;;;18.70;15.00;;;;;;;23.42;100.00;101021.09;5014301;28;20431;-75
2021/07/12 05:24:12;;;;;;;18.13;14.60;;;;;;;23.41;100.00;101027.47;5006936;28;20244;-72
2021/07/12 05:26:37;;;;;;;17.67;14.10;;;;;;;23.49;100.00;101033.59;5014494;28;20678;-72
2021/07/12 05:29:03;;;;;;;20.70;14.00;;;;;;;23.60;100.00;101027.03;5014880;28;20221;-73
2021/07/12 05:31:30;;;;;;;19.83;13.20;;;;;;;23.63;100.00;101029.34;5038569;28;20276;-74
2021/07/12 05:33:58;;;;;;;19.50;13.37;;;;;;;23.63;100.00;101032.00;5027199;28;20178;-73
2021/07/12 05:36:25;;;;;;;18.03;14.70;;;;;;;23.63;100.00;101033.88;5023896;28;20486;-72
2021/07/12 05:38:53;;;;;;;18.67;13.63;;;;;;;23.76;100.00;101028.72;5035158;28;20409;-75
2021/07/12 05:41:18;;;;;;;20.57;13.77;;;;;;;23.86;100.00;101039.19;5013904;28;20862;-72
2021/07/12 05:43:44;;;;;;;15.47;13.47;;;;;;;23.91;100.00;101037.66;5014207;28;20412;-73
2021/07/12 05:46:09;;;;;;;22.80;15.80;;;;;;;24.03;100.00;101041.56;5014089;28;20198;-74
2021/07/12 05:48:35;;;;;;;16.97;13.97;;;;;;;24.09;100.00;101039.97;5014014;28;20190;-72
2021/07/12 05:51:00;;;;;;;21.40;15.40;;;;;;;24.15;100.00;101036.56;5013993;28;20687;-73
2021/07/12 05:53:26;;;;;;;20.60;15.17;;;;;;;24.17;100.00;101033.69;5013987;28;20174;-72
2021/07/12 05:55:52;;;;;;;24.30;15.30;;;;;;;24.22;100.00;101042.88;5013599;28;20232;-74
2021/07/12 05:58:18;;;;;;;18.57;15.60;;;;;;;24.29;100.00;101030.38;5013163;28;20421;-74
2021/07/12 06:00:44;;;;;;;20.87;13.97;;;;;;;24.33;100.00;101036.22;5012732;28;20416;-74
2021/07/12 06:03:09;;;;;;;15.90;13.50;;;;;;;24.41;100.00;101041.53;5020020;28;20739;-73
2021/07/12 06:05:35;;;;;;;14.97;13.47;;;;;;;24.49;100.00;101029.84;5015782;28;20224;-73
2021/07/12 06:08:02;;;;;;;18.07;14.30;;;;;;;24.56;100.00;101028.06;5008149;28;20259;-74
2021/07/12 06:10:27;;;;;;;19.23;13.70;;;;;;;24.70;100.00;101037.97;5013471;28;20428;-72
2021/07/12 06:12:53;;;;;;;16.30;13.13;;;;;;;24.83;100.00;101031.94;5012083;28;20413;-73
2021/07/12 06:15:20;;;;;;;17.40;14.07;;;;;;;24.94;100.00;101033.28;5011867;28;20637;-73
2021/07/12 06:17:46;;;;;;;20.13;15.20;;;;;;;25.00;100.00;101037.91;5013467;28;20182;-74
2021/07/12 06:20:17;;;;;;;18.57;14.70;;;;;;;25.02;100.00;101034.03;5013083;28;20413;-74
2021/07/12 06:22:46;;;;;;;16.80;14.03;;;;;;;25.00;100.00;101038.75;4998924;28;20214;-74
2021/07/12 06:25:13;;;;;;;15.43;13.47;;;;;;;25.02;100.00;101049.34;5013567;28;20532;-74
2021/07/12 06:27:39;;;;;;;16.37;13.53;;;;;;;25.08;100.00;101043.19;5012448;28;20444;-74
2021/07/12 06:30:06;;;;;;;14.80;12.43;;;;;;;25.13;100.00;101030.03;5011795;28;20811;-74
2021/07/12 06:32:32;;;;;;;18.77;13.50;;;;;;;25.21;100.00;101035.28;5022919;28;20233;-73
2021/07/12 06:34:57;;;;;;;19.13;13.47;;;;;;;25.26;100.00;101042.78;5014735;28;21246;-73
2021/07/12 06:37:23;;;;;;;17.13;13.73;;;;;;;25.35;100.00;101039.78;5019568;28;20569;-73
2021/07/12 06:39:48;;;;;;;21.23;14.40;;;;;;;25.53;100.00;101036.63;5017018;28;20649;-72
2021/07/12 06:42:14;;;;;;;23.60;12.63;;;;;;;25.78;100.00;101041.66;5012546;28;20166;-73
2021/07/12 06:44:40;;;;;;;18.30;15.10;;;;;;;25.87;100.00;101038.63;5012249;28;20547;-73
2021/07/12 06:47:06;;;;;;;22.93;13.67;;;;;;;26.00;100.00;101051.38;5012581;28;20162;-73
2021/07/12 06:49:32;;;;;;;17.47;13.10;;;;;;;25.97;100.00;101046.34;5013021;28;20402;-72
2021/07/12 06:51:57;;;;;;;18.40;12.77;;;;;;;25.90;100.00;101046.28;5024506;28;20273;-72
2021/07/12 06:54:23;;;;;;;18.20;14.73;;;;;;;25.93;100.00;101039.69;5002294;28;20719;-74
2021/07/12 06:56:48;;;;;;;16.20;13.70;;;;;;;25.98;100.00;101040.75;5012198;28;20249;-71
2021/07/12 06:59:14;;;;;;;14.50;12.80;;;;;;;26.07;100.00;101041.47;5012952;28;20178;-72
2021/07/12 07:01:39;;;;;;;15.67;13.00;;;;;;;26.18;100.00;101042.78;5012339;28;20515;-74
2021/07/12 07:04:05;;;;;;;19.27;14.33;;;;;;;26.25;100.00;101038.25;5011939;28;20245;-74
2021/07/12 07:06:31;;;;;;;17.07;13.13;;;;;;;26.30;100.00;101043.91;5018382;28;20253;-74
2021/07/12 07:08:56;;;;;;;17.10;13.57;;;;;;;26.45;100.00;101038.38;5014277;28;20186;-74
2021/07/12 07:11:22;;;;;;;15.87;14.17;;;;;;;26.52;100.00;101047.34;5021639;28;20169;-74
2021/07/12 07:13:47;;;;;;;16.13;13.20;;;;;;;26.63;100.00;101046.78;5010322;28;20158;-74
2021/07/12 07:16:13;;;;;;;22.70;14.93;;;;;;;26.58;100.00;101043.84;5010676;28;20656;-74
2021/07/12 07:18:38;;;;;;;18.03;13.73;;;;;;;26.72;100.00;101045.59;5010063;28;20231;-74
2021/07/12 07:21:04;;;;;;;23.70;14.80;;;;;;;26.86;100.00;101045.66;5010192;28;20158;-73
2021/07/12 07:23:29;;;;;;;19.90;14.77;;;;;;;26.86;100.00;101046.47;5009977;28;20166;-73
2021/07/12 07:25:55;;;;;;;19.20;15.57;;;;;;;26.89;100.00;101039.81;5012165;28;20177;-74
2021/07/12 07:28:20;;;;;;;15.30;13.70;;;;;;;27.04;100.00;101046.75;5012072;28;20190;-75
2021/07/12 07:30:46;;;;;;;18.33;14.60;;;;;;;27.21;100.00;101036.44;5012468;28;20170;-73
2021/07/12 07:33:12;;;;;;;21.53;14.00;;;;;;;27.28;100.00;101045.38;5009788;28;20218;-74
2021/07/12 07:35:39;;;;;;;17.03;15.20;;;;;;;27.42;100.00;101032.72;5011765;28;20433;-72
2021/07/12 07:38:05;;;;;;;22.60;15.07;;;;;;;27.51;100.00;101036.09;5013496;28;20574;-74
2021/07/12 07:40:31;;;;;;;14.73;13.13;;;;;;;27.55;100.00;101030.03;5012266;28;20421;-71
2021/07/12 07:42:57;;;;;;;19.07;14.00;;;;;;;27.63;100.00;101029.84;5015740;28;20168;-73
2021/07/12 07:45:22;;;;;;;20.60;14.03;;;;;;;27.73;100.00;101034.84;5012209;28;20174;-73
2021/07/12 07:47:48;;;;;;;20.93;12.97;;;;;;;27.79;100.00;101031.31;5011795;28;20524;-74
2021/07/12 07:50:14;;;;;;;16.87;13.10;;;;;;;27.92;100.00;101031.31;5012175;28;20178;-73
2021/07/12 07:52:40;;;;;;;17.87;13.27;;;;;;;28.05;100.00;101019.66;5011887;28;20166;-72
2021/07/12 07:55:08;;;;;;;22.80;13.60;;;;;;;28.25;100.00;101024.19;5011153;28;20410;-72
2021/07/12 07:57:37;;;;;;;17.20;13.17;;;;;;;28.50;100.00;101029.78;5011686;28;20174;-74
2021/07/12 08:00:11;;;;;;;18.60;13.10;;;;;;;28.58;100.00;101024.97;5019207;28;20416;-74
2021/07/12 08:02:36;;;;;;;17.63;13.07;;;;;;;28.60;100.00;101030.97;5002390;28;20495;-74
2021/07/12 08:05:03;;;;;;;16.27;10.93;;;;;;;28.79;100.00;101026.50;5010773;28;20915;-74
2021/07/12 08:07:29;;;;;;;11.50;8.07;;;;;;;28.98;100.00;101011.25;5012866;28;20189;-75
2021/07/12 08:09:55;;;;;;;10.60;7.90;;;;;;;29.21;100.00;101019.66;5011084;28;20756;-73
2021/07/12 08:12:20;;;;;;;14.67;9.10;;;;;;;29.33;100.00;101016.25;4998536;28;20562;-74
2021/07/12 08:14:46;;;;;;;18.30;13.30;;;;;;;29.52;100.00;101024.25;5010794;28;20162;-73
2021/07/12 08:17:12;;;;;;;12.07;10.37;;;;;;;29.67;100.00;101037.47;5011561;28;20709;-73
2021/07/12 08:19:37;;;;;;;18.60;14.03;;;;;;;29.71;100.00;101035.16;5024310;28;20464;-74
2021/07/12 08:22:04;;;;;;;20.63;18.63;;;;;;;29.67;100.00;101032.03;5010887;28;20174;-74
2021/07/12 08:24:29;;;;;;;17.60;14.47;;;;;;;29.70;100.00;101030.75;5011687;28;20678;-74
2021/07/12 08:26:55;;;;;;;17.07;14.73;;;;;;;29.67;100.00;101036.63;5011015;28;20504;-74
2021/07/12 08:29:20;;;;;;;15.93;13.77;;;;;;;29.58;100.00;101038.81;5010504;28;20264;-73
2021/07/12 08:31:46;;;;;;;16.80;13.57;;;;;;;29.63;100.00;101033.56;5010543;28;20578;-73
2021/07/12 08:34:12;;;;;;;19.07;12.63;;;;;;;29.66;100.00;101041.22;5009902;28;20533;-74
2021/07/12 08:36:38;;;;;;;19.70;12.77;;;;;;;29.64;100.00;101034.38;5009463;28;20166;-73
2021/07/12 08:39:04;;;;;;;14.37;12.53;;;;;;;29.70;100.00;101034.34;5010662;28;20768;-73
2021/07/12 08:41:30;;;;;;;18.93;12.60;;;;;;;29.69;100.00;101038.06;5010342;28;20166;-72
2021/07/12 08:43:56;;;;;;;15.20;12.63;;;;;;;29.78;100.00;101033.22;5009947;28;20911;-70
2021/07/12 08:46:21;;;;;;;16.80;12.67;;;;;;;29.88;100.00;101028.13;5010423;28;20593;-71
2021/07/12 08:48:47;;;;;;;14.97;13.07;;;;;;;29.92;100.00;101034.75;5010138;28;20190;-70
2021/07/12 08:51:13;;;;;;;16.93;11.37;;;;;;;29.97;100.00;101032.19;5010216;28;20707;-73
2021/07/12 08:53:39;;;;;;;12.40;9.60;;;;;;;30.01;100.00;101029.88;5013065;28;20632;-75
2021/07/12 08:56:04;;;;;;;12.03;10.93;;;;;;;30.02;100.00;101031.53;5009677;28;20414;-74
2021/07/12 08:58:34;;;;;;;11.40;10.20;;;;;;;30.00;100.00;101029.06;5010395;28;20267;-74
2021/07/12 09:01:09;;;;;;;12.40;11.10;;;;;;;29.97;100.00;101029.50;5010608;28;20256;-73
2021/07/12 09:03:39;;;;;;;12.93;10.90;;;;;;;30.07;100.00;101034.38;5009471;28;20432;-73
2021/07/12 09:06:14;;;;;;;17.17;12.17;;;;;;;30.05;100.00;101036.50;5008702;28;20406;-73
2021/07/12 09:08:53;;;;;;;11.73;10.47;;;;;;;30.06;100.00;101027.31;5009601;28;21400;-74
2021/07/12 09:11:43;;;;;;;13.43;11.53;;;;;;;30.13;100.00;101030.00;5010803;28;20500;-74
2021/07/12 09:14:14;;;;;;;12.53;10.47;;;;;;;29.92;100.00;101033.91;5010659;28;20475;-74
2021/07/12 09:16:44;;;;;;;13.13;11.03;;;;;;;30.01;100.00;101019.88;5024064;28;20512;-75
2021/07/12 09:19:14;;;;;;;23.90;12.63;;;;;;;30.10;100.00;101020.44;5010191;28;20413;-75
2021/07/12 09:21:43;;;;;;;12.83;11.53;;;;;;;30.21;100.00;101030.53;5010147;28;20402;-73
2021/07/12 09:24:18;;;;;;;12.97;11.20;;;;;;;30.23;100.00;101024.88;5010514;28;20499;-74
2021/07/12 09:26:52;;;;;;;13.27;11.87;;;;;;;30.24;100.00;101030.09;5008997;28;20496;-74
2021/07/12 09:29:21;;;;;;;15.13;13.03;;;;;;;30.21;100.00;101029.69;5008645;28;20464;-72
2021/07/12 09:31:48;;;;;;;19.10;12.13;;;;;;;30.17;100.00;101028.50;5009059;28;20409;-74
2021/07/12 09:34:14;;;;;;;15.10;11.93;;;;;;;30.06;100.00;101033.56;5012810;28;20951;-75
2021/07/12 09:36:40;;;;;;;21.37;12.30;;;;;;;30.12;100.00;101034.59;5009404;28;20413;-74
2021/07/12 09:39:35;;;;;;;12.37;10.33;;;;;;;30.21;100.00;101038.66;5002809;28;20912;-75
2021/07/12 09:42:09;;;;;;;13.37;11.83;;;;;;;30.32;100.00;101039.81;5008668;28;20458;-73
2021/07/12 09:44:38;;;;;;;17.70;11.20;;;;;;;30.36;100.00;101039.13;5009152;28;20431;-71
2021/07/12 09:47:07;;;;;;;12.30;11.10;;;;;;;30.06;100.00;101044.41;5011584;28;20420;-73
2021/07/12 09:49:32;;;;;;;13.00;11.10;;;;;;;30.06;100.00;101049.81;5014185;28;20548;-73
2021/07/12 09:52:03;;;;;;;15.80;11.80;;;;;;;30.20;100.00;101045.13;5011733;28;20456;-72
2021/07/12 09:54:35;;;;;;;16.03;13.10;;;;;;;30.36;100.00;101049.13;5004071;28;20198;-73
2021/07/12 09:57:05;;;;;;;13.20;11.67;;;;;;;30.43;100.00;101044.47;5008622;28;20421;-72
2021/07/12 09:59:31;;;;;;;13.60;12.30;;;;;;;30.45;100.00;101045.06;5011758;28;20413;-75
2021/07/12 10:01:57;;;;;;;15.87;12.20;;;;;;;30.57;100.00;101043.25;5011799;28;20405;-74
2021/07/12 10:04:24;;;;;;;15.77;12.63;;;;;;;30.71;100.00;101045.84;5012188;28;20922;-73
2021/07/12 10:06:52;;;;;;;15.87;13.00;;;;;;;30.89;100.00;101051.25;5021982;28;20212;-72
2021/07/12 10:09:21;;;;;;;15.70;12.90;;;;;;;31.03;100.00;101050.00;5014518;28;21483;-72
2021/07/12 10:11:48;;;;;;;15.10;12.10;;;;;;;31.43;100.00;101046.72;5018790;28;20488;-73
2021/07/12 10:14:13;;;;;;;13.93;11.10;;;;;;;31.88;100.00;101047.06;5011516;28;20449;-73
2021/07/12 10:16:39;;;;;;;13.83;11.70;;;;;;;31.82;100.00;101052.63;5011675;28;20420;-74
2021/07/12 10:19:05;;;;;;;12.23;11.03;;;;;;;31.88;100.00;101051.69;5012019;28;20592;-71
2021/07/12 10:21:52;;;;;;;14.23;12.13;;;;;;;32.00;100.00;101052.50;5023270;28;20530;-72
2021/07/12 10:24:27;;;;;;;13.50;11.33;;;;;;;31.69;100.00;101054.47;5011776;28;20507;-74
2021/07/12 10:27:00;;;;;;;14.10;10.63;;;;;;;31.75;100.00;101056.25;5000888;28;20459;-74
2021/07/12 10:29:35;;;;;;;13.03;10.03;;;;;;;31.65;100.00;101056.00;5012227;28;20452;-73
2021/07/12 10:32:10;;;;;;;13.20;11.77;;;;;;;31.48;100.00;101052.31;5012892;28;21288;-72
2021/07/12 10:34:44;;;;;;;16.87;10.97;;;;;;;31.37;100.00;101062.09;5015536;28;20499;-72
2021/07/12 10:37:22;;;;;;;12.67;11.47;;;;;;;31.24;100.00;101064.19;5013105;28;20424;-73
2021/07/12 10:40:11;;;;;;;16.93;10.97;;;;;;;31.03;100.00;101069.03;5020139;28;20423;-74
2021/07/12 10:42:45;;;;;;;12.43;11.13;;;;;;;31.06;100.00;101067.72;5011624;28;20567;-72
2021/07/12 10:45:34;;;;;;;15.27;10.93;;;;;;;31.15;100.00;101060.94;5011777;28;20416;-74
2021/07/12 10:48:34;;;;;;;13.53;10.80;;;;;;;31.19;100.00;101065.66;5012348;28;21032;-73
2021/07/12 10:51:15;;;;;;;14.20;11.03;;;;;;;31.35;100.00;101068.81;5004752;28;20409;-73
2021/07/12 10:53:41;;;;;;;14.13;11.63;;;;;;;31.33;100.00;101065.50;5000071;28;20421;-72
2021/07/12 10:56:08;;;;;;;11.87;10.67;;;;;;;31.25;100.00;101066.66;5023891;28;20421;-74
2021/07/12 10:58:35;;;;;;;11.13;9.20;;;;;;;31.19;100.00;101062.09;5012812;28;20268;-76
2021/07/12 11:01:05;;;;;;;14.70;10.00;;;;;;;30.92;100.00;101067.91;5012843;28;20484;-72
2021/07/12 11:03:50;;;;;;;13.73;10.00;;;;;;;30.94;100.00;101068.50;5012788;28;20993;-74
2021/07/12 11:06:15;;;;;;;11.77;9.80;;;;;;;31.02;100.00;101074.69;5012493;28;20413;-73
2021/07/12 11:08:40;;;;;;;12.17;9.30;;;;;;;31.06;100.00;101079.44;5011767;28;20463;-75
2021/07/12 11:11:06;;;;;;;13.90;10.90;;;;;;;31.07;100.00;101072.94;5011698;28;20198;-74